PWSweather.com
Personal Weather Stations
Station Observations
KMICHEBO10
Cordwood Point, Lake Huron, Cheboygan, MI 49721

Cordwood Point, Lake HuronCheboygan, MI 49721

Lat: 45.663372, Lon: -84.3327789

Elevation: 584

Station Type: Davis Vantage Pro2 Wireless

http://www.lakehuronweather.org

High Low Average
Temperature 20.2°F-6.6°C 3.6°F-15.8°C 12.2°F-11.0°C
Dew Point 12.0°F-11.1°C 0.9°F-17.3°C 6.1°F-14.4°C
Winds 6.9 mph 11.1 kmh Calm Calm 1.0 mph S1.6 kmh S
Wind Gusts 10.4 mph16.7 kmh -- 3.0 mph4.8 kmh
Humidity 90% 57% 77%
Pressure 30.58 in1035.6 mb 30.44 in1030.8 mb -
Precipitation 0.00 in0.0 mm - -
Hour Temp Dew Point Humidity Winds Wind Gusts Pressure Precip Precip Rate Daily Precip Total
12:00 AM 6.1°F-14.4°C 3.1°F-16.1°C 87% 1.2 mph SSW1.9 kmh SSW 2.3 mph3.7 kmh 30.55 in1034.5 mb - 0.00 in0.0 mm 0.00 in0.0 mm
12:10 AM 6.0°F-14.4°C 3.2°F-16.0°C 88% 1.2 mph S1.9 kmh S 2.3 mph3.7 kmh 30.55 in1034.5 mb - 0.00 in0.0 mm 0.00 in0.0 mm
12:20 AM 6.0°F-14.4°C 3.2°F-16.0°C 88% 1.2 mph SSW1.9 kmh SSW 2.3 mph3.7 kmh 30.55 in1034.5 mb - 0.00 in0.0 mm 0.00 in0.0 mm
12:30 AM 6.0°F-14.4°C 3.2°F-16.0°C 88% 1.2 mph SW1.9 kmh SW 2.3 mph3.7 kmh 30.55 in1034.5 mb - 0.00 in0.0 mm 0.00 in0.0 mm
12:40 AM 5.9°F-14.5°C 3.1°F-16.1°C 88% 1.2 mph SW1.9 kmh SW 2.3 mph3.7 kmh 30.55 in1034.5 mb - 0.00 in0.0 mm 0.00 in0.0 mm
12:50 AM 5.9°F-14.5°C 3.1°F-16.1°C 88% 1.2 mph SSW1.9 kmh SSW 3.5 mph5.6 kmh 30.55 in1034.5 mb - 0.00 in0.0 mm 0.00 in0.0 mm
01:00 AM 5.9°F-14.5°C 3.1°F-16.1°C 88% 1.2 mph S1.9 kmh S 2.3 mph3.7 kmh 30.55 in1034.5 mb - 0.00 in0.0 mm 0.00 in0.0 mm
01:10 AM 6.0°F-14.4°C 3.5°F-15.8°C 89% 1.2 mph S1.9 kmh S 2.3 mph3.7 kmh 30.55 in1034.5 mb - 0.00 in0.0 mm 0.00 in0.0 mm
01:20 AM 6.1°F-14.4°C 3.5°F-15.8°C 89% 1.2 mph S1.9 kmh S 2.3 mph3.7 kmh 30.55 in1034.5 mb - 0.00 in0.0 mm 0.00 in0.0 mm
01:30 AM 6.2°F-14.3°C 3.4°F-15.9°C 88% 1.2 mph S1.9 kmh S 3.5 mph5.6 kmh 30.55 in1034.5 mb - 0.00 in0.0 mm 0.00 in0.0 mm
01:40 AM 6.2°F-14.3°C 3.4°F-15.9°C 88% 1.2 mph S1.9 kmh S 2.3 mph3.7 kmh 30.55 in1034.5 mb - 0.00 in0.0 mm 0.00 in0.0 mm
01:50 AM 6.3°F-14.3°C 3.5°F-15.8°C 88% 1.2 mph SW1.9 kmh SW 2.3 mph3.7 kmh 30.55 in1034.5 mb - 0.00 in0.0 mm 0.00 in0.0 mm
02:00 AM 6.4°F-14.2°C 3.6°F-15.8°C 88% 1.2 mph SSW1.9 kmh SSW 2.3 mph3.7 kmh 30.55 in1034.5 mb - 0.00 in0.0 mm 0.00 in0.0 mm
02:10 AM 6.4°F-14.2°C 3.6°F-15.8°C 88% 1.2 mph SSW1.9 kmh SSW 3.5 mph5.6 kmh 30.55 in1034.5 mb - 0.00 in0.0 mm 0.00 in0.0 mm
02:20 AM 6.5°F-14.2°C 3.7°F-15.7°C 88% Calm Calm 1.2 mph1.9 kmh 30.55 in1034.5 mb - 0.00 in0.0 mm 0.00 in0.0 mm
02:30 AM 6.7°F-14.1°C 4.1°F-15.5°C 89% 1.2 mph SW1.9 kmh SW 2.3 mph3.7 kmh 30.55 in1034.5 mb - 0.00 in0.0 mm 0.00 in0.0 mm
02:40 AM 6.7°F-14.1°C 3.9°F-15.6°C 88% 1.2 mph SW1.9 kmh SW 2.3 mph3.7 kmh 30.55 in1034.5 mb - 0.00 in0.0 mm 0.00 in0.0 mm
02:50 AM 6.6°F-14.1°C 3.8°F-15.7°C 88% 1.2 mph SSW1.9 kmh SSW 2.3 mph3.7 kmh 30.55 in1034.5 mb - 0.00 in0.0 mm 0.00 in0.0 mm
03:00 AM 6.6°F-14.1°C 3.8°F-15.7°C 88% 1.2 mph SSW1.9 kmh SSW 2.3 mph3.7 kmh 30.55 in1034.5 mb - 0.00 in0.0 mm 0.00 in0.0 mm
03:10 AM 6.6°F-14.1°C 3.8°F-15.7°C 88% 1.2 mph SSW1.9 kmh SSW 1.2 mph1.9 kmh 30.55 in1034.5 mb - 0.00 in0.0 mm 0.00 in0.0 mm
03:20 AM 6.7°F-14.1°C 4.1°F-15.5°C 89% Calm Calm 1.2 mph1.9 kmh 30.55 in1034.5 mb - 0.00 in0.0 mm 0.00 in0.0 mm
03:30 AM 6.7°F-14.1°C 4.1°F-15.5°C 89% Calm Calm 1.2 mph1.9 kmh 30.55 in1034.5 mb - 0.00 in0.0 mm 0.00 in0.0 mm
03:40 AM 6.5°F-14.2°C 3.7°F-15.7°C 88% 1.2 mph SW1.9 kmh SW 2.3 mph3.7 kmh 30.56 in1034.9 mb - 0.00 in0.0 mm 0.00 in0.0 mm
03:50 AM 6.5°F-14.2°C 3.7°F-15.7°C 88% 1.2 mph SSW1.9 kmh SSW 1.2 mph1.9 kmh 30.56 in1034.9 mb - 0.00 in0.0 mm 0.00 in0.0 mm
04:00 AM 6.6°F-14.1°C 4.0°F-15.6°C 89% 1.2 mph SW1.9 kmh SW 2.3 mph3.7 kmh 30.56 in1034.9 mb - 0.00 in0.0 mm 0.00 in0.0 mm
04:10 AM 6.6°F-14.1°C 3.8°F-15.7°C 88% 1.2 mph SW1.9 kmh SW 2.3 mph3.7 kmh 30.57 in1035.2 mb - 0.00 in0.0 mm 0.00 in0.0 mm
04:20 AM 6.6°F-14.1°C 3.8°F-15.7°C 88% 1.2 mph SW1.9 kmh SW 1.2 mph1.9 kmh 30.57 in1035.2 mb - 0.00 in0.0 mm 0.00 in0.0 mm
04:30 AM 6.7°F-14.1°C 3.9°F-15.6°C 88% 1.2 mph SSW1.9 kmh SSW 2.3 mph3.7 kmh 30.57 in1035.2 mb - 0.00 in0.0 mm 0.00 in0.0 mm
04:40 AM 6.4°F-14.2°C 3.6°F-15.8°C 88% 1.2 mph SSW1.9 kmh SSW 2.3 mph3.7 kmh 30.57 in1035.2 mb - 0.00 in0.0 mm 0.00 in0.0 mm
04:50 AM 6.2°F-14.3°C 3.4°F-15.9°C 88% 1.2 mph SSW1.9 kmh SSW 1.2 mph1.9 kmh 30.57 in1035.2 mb - 0.00 in0.0 mm 0.00 in0.0 mm
05:00 AM 6.0°F-14.4°C 3.5°F-15.8°C 89% 1.2 mph SSW1.9 kmh SSW 1.2 mph1.9 kmh 30.57 in1035.2 mb - 0.00 in0.0 mm 0.00 in0.0 mm
05:10 AM 5.9°F-14.5°C 3.4°F-15.9°C 89% 1.2 mph SSW1.9 kmh SSW 2.3 mph3.7 kmh 30.57 in1035.2 mb - 0.00 in0.0 mm 0.00 in0.0 mm
05:20 AM 5.6°F-14.7°C 2.8°F-16.2°C 88% 1.2 mph SSW1.9 kmh SSW 1.2 mph1.9 kmh 30.57 in1035.2 mb - 0.00 in0.0 mm 0.00 in0.0 mm
05:30 AM 5.4°F-14.8°C 2.6°F-16.3°C 88% 1.2 mph SSW1.9 kmh SSW 1.2 mph1.9 kmh 30.57 in1035.2 mb - 0.00 in0.0 mm 0.00 in0.0 mm
05:40 AM 5.2°F-14.9°C 2.7°F-16.3°C 89% 1.2 mph SSW1.9 kmh SSW 1.2 mph1.9 kmh 30.57 in1035.2 mb - 0.00 in0.0 mm 0.00 in0.0 mm
05:50 AM 5.1°F-14.9°C 2.3°F-16.5°C 88% 1.2 mph SSW1.9 kmh SSW 2.3 mph3.7 kmh 30.57 in1035.2 mb - 0.00 in0.0 mm 0.00 in0.0 mm
06:00 AM 4.8°F-15.1°C 2.0°F-16.7°C 88% 1.2 mph SSW1.9 kmh SSW 2.3 mph3.7 kmh 30.57 in1035.2 mb - 0.00 in0.0 mm 0.00 in0.0 mm
06:10 AM 4.6°F-15.2°C 1.8°F-16.8°C 88% 1.2 mph SSW1.9 kmh SSW 2.3 mph3.7 kmh 30.57 in1035.2 mb - 0.00 in0.0 mm 0.00 in0.0 mm
06:20 AM 4.4°F-15.3°C 1.6°F-16.9°C 88% 1.2 mph S1.9 kmh S 1.2 mph1.9 kmh 30.57 in1035.2 mb - 0.00 in0.0 mm 0.00 in0.0 mm
06:30 AM 4.4°F-15.3°C 1.6°F-16.9°C 88% 1.2 mph S1.9 kmh S 1.2 mph1.9 kmh 30.57 in1035.2 mb - 0.00 in0.0 mm 0.00 in0.0 mm
06:40 AM 4.3°F-15.4°C 1.5°F-16.9°C 88% 1.2 mph S1.9 kmh S 2.3 mph3.7 kmh 30.57 in1035.2 mb - 0.00 in0.0 mm 0.00 in0.0 mm
06:50 AM 4.3°F-15.4°C 1.8°F-16.8°C 89% Calm Calm 1.2 mph1.9 kmh 30.57 in1035.2 mb - 0.00 in0.0 mm 0.00 in0.0 mm
07:00 AM 4.2°F-15.4°C 1.4°F-17.0°C 88% 1.2 mph SSW1.9 kmh SSW 1.2 mph1.9 kmh 30.57 in1035.2 mb - 0.00 in0.0 mm 0.00 in0.0 mm
07:10 AM 4.1°F-15.5°C 1.3°F-17.1°C 88% 1.2 mph SSW1.9 kmh SSW 2.3 mph3.7 kmh 30.57 in1035.2 mb - 0.00 in0.0 mm 0.00 in0.0 mm
07:20 AM 4.2°F-15.4°C 1.7°F-16.8°C 89% 1.2 mph SSW1.9 kmh SSW 1.2 mph1.9 kmh 30.57 in1035.2 mb - 0.00 in0.0 mm 0.00 in0.0 mm
07:30 AM 4.4°F-15.3°C 1.9°F-16.7°C 89% 1.2 mph SSW1.9 kmh SSW 2.3 mph3.7 kmh 30.57 in1035.2 mb - 0.00 in0.0 mm 0.00 in0.0 mm
07:40 AM 4.7°F-15.2°C 2.2°F-16.6°C 89% 1.2 mph SSW1.9 kmh SSW 3.5 mph5.6 kmh 30.58 in1035.6 mb - 0.00 in0.0 mm 0.00 in0.0 mm
07:50 AM 4.6°F-15.2°C 2.1°F-16.6°C 89% 1.2 mph SSW1.9 kmh SSW 2.3 mph3.7 kmh 30.57 in1035.2 mb - 0.00 in0.0 mm 0.00 in0.0 mm
08:00 AM 4.6°F-15.2°C 2.1°F-16.6°C 89% 1.2 mph SSW1.9 kmh SSW 2.3 mph3.7 kmh 30.58 in1035.6 mb - 0.00 in0.0 mm 0.00 in0.0 mm
08:10 AM 4.4°F-15.3°C 1.6°F-16.9°C 88% 1.2 mph SSW1.9 kmh SSW 1.2 mph1.9 kmh 30.58 in1035.6 mb - 0.00 in0.0 mm 0.00 in0.0 mm
08:20 AM 4.2°F-15.4°C 1.4°F-17.0°C 88% 1.2 mph SSW1.9 kmh SSW 1.2 mph1.9 kmh 30.58 in1035.6 mb - 0.00 in0.0 mm 0.00 in0.0 mm
08:30 AM 4.1°F-15.5°C 1.3°F-17.1°C 88% 1.2 mph SSW1.9 kmh SSW 1.2 mph1.9 kmh 30.58 in1035.6 mb - 0.00 in0.0 mm 0.00 in0.0 mm
08:40 AM 3.8°F-15.7°C 1.0°F-17.2°C 88% 1.2 mph SSW1.9 kmh SSW 1.2 mph1.9 kmh 30.57 in1035.2 mb - 0.00 in0.0 mm 0.00 in0.0 mm
08:50 AM 3.6°F-15.8°C 0.9°F-17.3°C 88% 1.2 mph SSW1.9 kmh SSW 1.2 mph1.9 kmh 30.57 in1035.2 mb - 0.00 in0.0 mm 0.00 in0.0 mm
09:00 AM 3.7°F-15.7°C 0.9°F-17.3°C 88% Calm Calm 1.2 mph1.9 kmh 30.57 in1035.2 mb - 0.00 in0.0 mm 0.00 in0.0 mm
09:10 AM 4.0°F-15.6°C 1.4°F-17.0°C 89% 1.2 mph SSW1.9 kmh SSW 1.2 mph1.9 kmh 30.57 in1035.2 mb - 0.00 in0.0 mm 0.00 in0.0 mm
09:20 AM 4.1°F-15.5°C 1.6°F-16.9°C 89% 1.2 mph S1.9 kmh S 3.5 mph5.6 kmh 30.57 in1035.2 mb - 0.00 in0.0 mm 0.00 in0.0 mm
09:30 AM 4.7°F-15.2°C 2.4°F-16.4°C 90% 1.2 mph S1.9 kmh S 2.3 mph3.7 kmh 30.57 in1035.2 mb - 0.00 in0.0 mm 0.00 in0.0 mm
09:40 AM 5.6°F-14.7°C 3.3°F-15.9°C 90% 1.2 mph S1.9 kmh S 1.2 mph1.9 kmh 30.57 in1035.2 mb - 0.00 in0.0 mm 0.00 in0.0 mm
09:50 AM 6.2°F-14.3°C 3.9°F-15.6°C 90% 1.2 mph S1.9 kmh S 2.3 mph3.7 kmh 30.57 in1035.2 mb - 0.00 in0.0 mm 0.00 in0.0 mm
10:00 AM 6.8°F-14.0°C 4.5°F-15.3°C 90% 1.2 mph S1.9 kmh S 2.3 mph3.7 kmh 30.57 in1035.2 mb - 0.00 in0.0 mm 0.00 in0.0 mm
10:10 AM 7.4°F-13.7°C 5.1°F-14.9°C 90% Calm Calm 1.2 mph1.9 kmh 30.57 in1035.2 mb - 0.00 in0.0 mm 0.00 in0.0 mm
10:20 AM 8.0°F-13.3°C 5.7°F-14.6°C 90% Calm Calm 1.2 mph1.9 kmh 30.57 in1035.2 mb - 0.00 in0.0 mm 0.00 in0.0 mm
10:30 AM 8.7°F-12.9°C 6.4°F-14.2°C 90% Calm Calm 1.2 mph1.9 kmh 30.57 in1035.2 mb - 0.00 in0.0 mm 0.00 in0.0 mm
10:40 AM 9.5°F-12.5°C 7.2°F-13.8°C 90% 1.2 mph S1.9 kmh S 1.2 mph1.9 kmh 30.57 in1035.2 mb - 0.00 in0.0 mm 0.00 in0.0 mm
10:50 AM 10.6°F-11.9°C 8.0°F-13.3°C 89% 1.2 mph S1.9 kmh S 2.3 mph3.7 kmh 30.57 in1035.2 mb - 0.00 in0.0 mm 0.00 in0.0 mm
11:00 AM 11.2°F-11.6°C 8.3°F-13.2°C 88% 2.3 mph SSW3.7 kmh SSW 3.5 mph5.6 kmh 30.57 in1035.2 mb - 0.00 in0.0 mm 0.00 in0.0 mm
11:10 AM 11.9°F-11.2°C 9.0°F-12.8°C 88% 2.3 mph S3.7 kmh S 3.5 mph5.6 kmh 30.57 in1035.2 mb - 0.00 in0.0 mm 0.00 in0.0 mm
11:20 AM 12.7°F-10.7°C 9.6°F-12.4°C 87% 1.2 mph S1.9 kmh S 4.6 mph7.4 kmh 30.58 in1035.6 mb - 0.00 in0.0 mm 0.00 in0.0 mm
11:30 AM 13.2°F-10.4°C 10.1°F-12.2°C 87% 1.2 mph S1.9 kmh S 3.5 mph5.6 kmh 30.57 in1035.2 mb - 0.00 in0.0 mm 0.00 in0.0 mm
11:40 AM 13.8°F-10.1°C 10.4°F-12.0°C 86% 3.5 mph S5.6 kmh S 5.8 mph9.3 kmh 30.57 in1035.2 mb - 0.00 in0.0 mm 0.00 in0.0 mm
11:50 AM 14.8°F-9.6°C 11.1°F-11.6°C 85% 1.2 mph S1.9 kmh S 2.3 mph3.7 kmh 30.57 in1035.2 mb - 0.00 in0.0 mm 0.00 in0.0 mm
12:00 PM 15.7°F-9.1°C 11.2°F-11.6°C 82% 1.2 mph SSE1.9 kmh SSE 3.5 mph5.6 kmh 30.57 in1035.2 mb - 0.00 in0.0 mm 0.00 in0.0 mm
12:10 PM 16.5°F-8.6°C 12.0°F-11.1°C 82% 2.3 mph S3.7 kmh S 6.9 mph11.1 kmh 30.57 in1035.2 mb - 0.00 in0.0 mm 0.00 in0.0 mm
12:20 PM 17.4°F-8.1°C 11.7°F-11.3°C 78% 2.3 mph S3.7 kmh S 6.9 mph11.1 kmh 30.56 in1034.9 mb - 0.00 in0.0 mm 0.00 in0.0 mm
12:30 PM 18.1°F-7.7°C 11.2°F-11.6°C 74% 2.3 mph S3.7 kmh S 4.6 mph7.4 kmh 30.56 in1034.9 mb - 0.00 in0.0 mm 0.00 in0.0 mm
12:40 PM 18.4°F-7.6°C 10.2°F-12.1°C 70% 3.5 mph S5.6 kmh S 5.8 mph9.3 kmh 30.56 in1034.9 mb - 0.00 in0.0 mm 0.00 in0.0 mm
12:50 PM 18.3°F-7.6°C 9.8°F-12.3°C 69% 2.3 mph SSW3.7 kmh SSW 6.9 mph11.1 kmh 30.56 in1034.9 mb - 0.00 in0.0 mm 0.00 in0.0 mm
01:00 PM 18.5°F-7.5°C 9.4°F-12.6°C 67% 1.2 mph SSW1.9 kmh SSW 2.3 mph3.7 kmh 30.56 in1034.9 mb - 0.00 in0.0 mm 0.00 in0.0 mm
01:10 PM 18.6°F-7.4°C 9.1°F-12.7°C 66% 4.6 mph S7.4 kmh S 6.9 mph11.1 kmh 30.55 in1034.5 mb - 0.00 in0.0 mm 0.00 in0.0 mm
01:20 PM 18.6°F-7.4°C 8.4°F-13.1°C 64% 4.6 mph S7.4 kmh S 8.1 mph13.0 kmh 30.55 in1034.5 mb - 0.00 in0.0 mm 0.00 in0.0 mm
01:30 PM 18.9°F-7.3°C 9.4°F-12.6°C 66% 2.3 mph S3.7 kmh S 5.8 mph9.3 kmh 30.54 in1034.2 mb - 0.00 in0.0 mm 0.00 in0.0 mm
01:40 PM 19.1°F-7.2°C 8.9°F-12.8°C 64% 3.5 mph SSW5.6 kmh SSW 4.6 mph7.4 kmh 30.54 in1034.2 mb - 0.00 in0.0 mm 0.00 in0.0 mm
01:50 PM 19.4°F-7.0°C 8.5°F-13.1°C 62% 6.9 mph S11.1 kmh S 10.4 mph16.7 kmh 30.54 in1034.2 mb - 0.00 in0.0 mm 0.00 in0.0 mm
02:00 PM 19.4°F-7.0°C 8.5°F-13.1°C 62% 3.5 mph S5.6 kmh S 3.5 mph5.6 kmh 30.53 in1033.9 mb - 0.00 in0.0 mm 0.00 in0.0 mm
02:10 PM 19.2°F-7.1°C 8.3°F-13.2°C 62% 2.3 mph S3.7 kmh S 6.9 mph11.1 kmh 30.52 in1033.5 mb - 0.00 in0.0 mm 0.00 in0.0 mm
02:20 PM 19.4°F-7.0°C 8.1°F-13.3°C 61% 3.5 mph SSE5.6 kmh SSE 5.8 mph9.3 kmh 30.52 in1033.5 mb - 0.00 in0.0 mm 0.00 in0.0 mm
02:30 PM 19.4°F-7.0°C 8.9°F-12.8°C 63% 2.3 mph S3.7 kmh S 4.6 mph7.4 kmh 30.51 in1033.2 mb - 0.00 in0.0 mm 0.00 in0.0 mm
02:40 PM 19.8°F-6.8°C 8.1°F-13.3°C 60% 1.2 mph SE1.9 kmh SE 3.5 mph5.6 kmh 30.51 in1033.2 mb - 0.00 in0.0 mm 0.00 in0.0 mm
02:50 PM 19.9°F-6.7°C 7.9°F-13.4°C 59% 4.6 mph S7.4 kmh S 6.9 mph11.1 kmh 30.50 in1032.8 mb - 0.00 in0.0 mm 0.00 in0.0 mm
03:00 PM 20.2°F-6.6°C 8.1°F-13.3°C 59% 3.5 mph SW5.6 kmh SW 3.5 mph5.6 kmh 30.50 in1032.8 mb - 0.00 in0.0 mm 0.00 in0.0 mm
03:10 PM 20.1°F-6.6°C 8.1°F-13.3°C 59% 5.8 mph SE9.3 kmh SE 8.1 mph13.0 kmh 30.50 in1032.8 mb - 0.00 in0.0 mm 0.00 in0.0 mm
03:20 PM 20.2°F-6.6°C 8.1°F-13.3°C 59% 3.5 mph S5.6 kmh S 5.8 mph9.3 kmh 30.49 in1032.5 mb - 0.00 in0.0 mm 0.00 in0.0 mm
03:30 PM 20.2°F-6.6°C 7.7°F-13.5°C 58% 3.5 mph SE5.6 kmh SE 5.8 mph9.3 kmh 30.49 in1032.5 mb - 0.00 in0.0 mm 0.00 in0.0 mm
03:40 PM 20.2°F-6.6°C 7.8°F-13.4°C 58% 3.5 mph SW5.6 kmh SW 4.6 mph7.4 kmh 30.48 in1032.2 mb - 0.00 in0.0 mm 0.00 in0.0 mm
03:50 PM 20.2°F-6.6°C 8.1°F-13.3°C 59% 2.3 mph SSW3.7 kmh SSW 6.9 mph11.1 kmh 30.48 in1032.2 mb - 0.00 in0.0 mm 0.00 in0.0 mm
04:00 PM 20.0°F-6.7°C 7.2°F-13.8°C 57% 3.5 mph S5.6 kmh S 6.9 mph11.1 kmh 30.48 in1032.2 mb - 0.00 in0.0 mm 0.00 in0.0 mm
04:10 PM 20.1°F-6.6°C 7.7°F-13.5°C 58% 1.2 mph S1.9 kmh S 3.5 mph5.6 kmh 30.48 in1032.2 mb - 0.00 in0.0 mm 0.00 in0.0 mm
04:20 PM 20.1°F-6.6°C 7.7°F-13.5°C 58% 3.5 mph S5.6 kmh S 5.8 mph9.3 kmh 30.48 in1032.2 mb - 0.00 in0.0 mm 0.00 in0.0 mm
04:30 PM 19.9°F-6.7°C 7.5°F-13.6°C 58% 3.5 mph S5.6 kmh S 3.5 mph5.6 kmh 30.47 in1031.8 mb - 0.00 in0.0 mm 0.00 in0.0 mm
04:40 PM 19.8°F-6.8°C 7.4°F-13.7°C 58% 3.5 mph SSE5.6 kmh SSE 3.5 mph5.6 kmh 30.47 in1031.8 mb - 0.00 in0.0 mm 0.00 in0.0 mm
04:50 PM 19.7°F-6.8°C 7.7°F-13.5°C 59% 1.2 mph S1.9 kmh S 2.3 mph3.7 kmh 30.47 in1031.8 mb - 0.00 in0.0 mm 0.00 in0.0 mm
05:00 PM 19.7°F-6.8°C 7.7°F-13.5°C 59% 1.2 mph SE1.9 kmh SE 2.3 mph3.7 kmh 30.47 in1031.8 mb - 0.00 in0.0 mm 0.00 in0.0 mm
05:10 PM 19.7°F-6.8°C 7.3°F-13.7°C 58% 2.3 mph S3.7 kmh S 4.6 mph7.4 kmh 30.47 in1031.8 mb - 0.00 in0.0 mm 0.00 in0.0 mm
05:20 PM 19.6°F-6.9°C 7.6°F-13.6°C 59% Calm Calm 3.5 mph5.6 kmh 30.46 in1031.5 mb - 0.00 in0.0 mm 0.00 in0.0 mm
05:30 PM 19.6°F-6.9°C 7.2°F-13.8°C 58% 1.2 mph S1.9 kmh S 2.3 mph3.7 kmh 30.46 in1031.5 mb - 0.00 in0.0 mm 0.00 in0.0 mm
05:40 PM 19.4°F-7.0°C 7.0°F-13.9°C 58% 1.2 mph S1.9 kmh S 1.2 mph1.9 kmh 30.46 in1031.5 mb - 0.00 in0.0 mm 0.00 in0.0 mm
05:50 PM 19.3°F-7.1°C 6.9°F-13.9°C 58% 2.3 mph S3.7 kmh S 3.5 mph5.6 kmh 30.46 in1031.5 mb - 0.00 in0.0 mm 0.00 in0.0 mm
06:00 PM 19.1°F-7.2°C 6.7°F-14.1°C 58% 2.3 mph S3.7 kmh S 2.3 mph3.7 kmh 30.46 in1031.5 mb - 0.00 in0.0 mm 0.00 in0.0 mm
06:10 PM 18.9°F-7.3°C 7.3°F-13.7°C 60% 1.2 mph SSE1.9 kmh SSE 1.2 mph1.9 kmh 30.45 in1031.2 mb - 0.00 in0.0 mm 0.00 in0.0 mm
06:20 PM 18.5°F-7.5°C 7.3°F-13.7°C 61% 2.3 mph SE3.7 kmh SE 2.3 mph3.7 kmh 30.46 in1031.5 mb - 0.00 in0.0 mm 0.00 in0.0 mm
06:30 PM 18.1°F-7.7°C 6.9°F-13.9°C 61% 1.2 mph S1.9 kmh S 1.2 mph1.9 kmh 30.45 in1031.2 mb - 0.00 in0.0 mm 0.00 in0.0 mm
06:40 PM 17.8°F-7.9°C 7.3°F-13.7°C 63% Calm Calm 1.2 mph1.9 kmh 30.46 in1031.5 mb - 0.00 in0.0 mm 0.00 in0.0 mm
06:50 PM 17.2°F-8.2°C 7.5°F-13.6°C 65% Calm Calm 1.2 mph1.9 kmh 30.46 in1031.5 mb - 0.00 in0.0 mm 0.00 in0.0 mm
07:00 PM 16.4°F-8.7°C 7.4°F-13.7°C 67% Calm Calm 1.2 mph1.9 kmh 30.46 in1031.5 mb - 0.00 in0.0 mm 0.00 in0.0 mm
07:10 PM 15.5°F-9.2°C 7.1°F-13.8°C 69% Calm Calm -- 30.46 in1031.5 mb - 0.00 in0.0 mm 0.00 in0.0 mm
07:20 PM 14.9°F-9.5°C 7.5°F-13.6°C 72% Calm Calm 1.2 mph1.9 kmh 30.46 in1031.5 mb - 0.00 in0.0 mm 0.00 in0.0 mm
07:30 PM 14.5°F-9.7°C 7.7°F-13.5°C 74% Calm Calm -- 30.46 in1031.5 mb - 0.00 in0.0 mm 0.00 in0.0 mm
07:40 PM 14.4°F-9.8°C 8.2°F-13.2°C 76% Calm Calm -- 30.46 in1031.5 mb - 0.00 in0.0 mm 0.00 in0.0 mm
07:50 PM 14.3°F-9.8°C 8.4°F-13.1°C 77% 1.2 mph SW1.9 kmh SW 1.2 mph1.9 kmh 30.46 in1031.5 mb - 0.00 in0.0 mm 0.00 in0.0 mm
08:00 PM 15.0°F-9.4°C 7.9°F-13.4°C 73% Calm Calm 1.2 mph1.9 kmh 30.46 in1031.5 mb - 0.00 in0.0 mm 0.00 in0.0 mm
08:10 PM 15.7°F-9.1°C 8.0°F-13.3°C 71% Calm Calm 1.2 mph1.9 kmh 30.46 in1031.5 mb - 0.00 in0.0 mm 0.00 in0.0 mm
08:20 PM 16.5°F-8.6°C 7.8°F-13.4°C 68% 2.3 mph SSE3.7 kmh SSE 3.5 mph5.6 kmh 30.46 in1031.5 mb - 0.00 in0.0 mm 0.00 in0.0 mm
08:30 PM 17.2°F-8.2°C 7.8°F-13.4°C 66% 1.2 mph S1.9 kmh S 2.3 mph3.7 kmh 30.46 in1031.5 mb - 0.00 in0.0 mm 0.00 in0.0 mm
08:40 PM 17.0°F-8.3°C 8.3°F-13.2°C 68% Calm Calm 1.2 mph1.9 kmh 30.45 in1031.2 mb - 0.00 in0.0 mm 0.00 in0.0 mm
08:50 PM 16.5°F-8.6°C 8.1°F-13.3°C 69% Calm Calm -- 30.45 in1031.2 mb - 0.00 in0.0 mm 0.00 in0.0 mm
09:00 PM 16.1°F-8.8°C 8.3°F-13.2°C 71% Calm Calm -- 30.46 in1031.5 mb - 0.00 in0.0 mm 0.00 in0.0 mm
09:10 PM 15.8°F-9.0°C 8.7°F-12.9°C 73% Calm Calm -- 30.46 in1031.5 mb - 0.00 in0.0 mm 0.00 in0.0 mm
09:20 PM 15.3°F-9.3°C 8.2°F-13.2°C 73% Calm Calm -- 30.46 in1031.5 mb - 0.00 in0.0 mm 0.00 in0.0 mm
09:30 PM 14.9°F-9.5°C 8.4°F-13.1°C 75% Calm Calm -- 30.45 in1031.2 mb - 0.00 in0.0 mm 0.00 in0.0 mm
09:40 PM 14.4°F-9.8°C 8.5°F-13.1°C 77% Calm Calm 1.2 mph1.9 kmh 30.45 in1031.2 mb - 0.00 in0.0 mm 0.00 in0.0 mm
09:50 PM 13.9°F-10.1°C 8.3°F-13.2°C 78% Calm Calm -- 30.45 in1031.2 mb - 0.00 in0.0 mm 0.00 in0.0 mm
10:00 PM 13.4°F-10.3°C 8.1°F-13.3°C 79% Calm Calm -- 30.45 in1031.2 mb - 0.00 in0.0 mm 0.00 in0.0 mm
10:10 PM 12.9°F-10.6°C 7.6°F-13.6°C 79% 1.2 mph S1.9 kmh S 1.2 mph1.9 kmh 30.45 in1031.2 mb - 0.00 in0.0 mm 0.00 in0.0 mm
10:20 PM 12.7°F-10.7°C 7.7°F-13.5°C 80% Calm Calm -- 30.45 in1031.2 mb - 0.00 in0.0 mm 0.00 in0.0 mm
10:30 PM 12.8°F-10.7°C 7.7°F-13.5°C 80% 1.2 mph SSE1.9 kmh SSE 2.3 mph3.7 kmh 30.45 in1031.2 mb - 0.00 in0.0 mm 0.00 in0.0 mm
10:40 PM 13.4°F-10.3°C 8.1°F-13.3°C 79% 1.2 mph SE1.9 kmh SE 2.3 mph3.7 kmh 30.45 in1031.2 mb - 0.00 in0.0 mm 0.00 in0.0 mm
10:50 PM 14.4°F-9.8°C 8.5°F-13.1°C 77% 1.2 mph SE1.9 kmh SE 2.3 mph3.7 kmh 30.45 in1031.2 mb - 0.00 in0.0 mm 0.00 in0.0 mm
11:00 PM 15.0°F-9.4°C 8.5°F-13.1°C 75% 2.3 mph S3.7 kmh S 3.5 mph5.6 kmh 30.45 in1031.2 mb - 0.00 in0.0 mm 0.00 in0.0 mm
11:10 PM 15.2°F-9.3°C 8.4°F-13.1°C 74% 2.3 mph SE3.7 kmh SE 3.5 mph5.6 kmh 30.45 in1031.2 mb - 0.00 in0.0 mm 0.00 in0.0 mm
11:20 PM 15.2°F-9.3°C 8.4°F-13.1°C 74% 1.2 mph SE1.9 kmh SE 3.5 mph5.6 kmh 30.45 in1031.2 mb - 0.00 in0.0 mm 0.00 in0.0 mm
11:30 PM 15.1°F-9.4°C 8.0°F-13.3°C 73% 1.2 mph SE1.9 kmh SE 4.6 mph7.4 kmh 30.45 in1031.2 mb - 0.00 in0.0 mm 0.00 in0.0 mm
11:40 PM 14.8°F-9.6°C 8.0°F-13.3°C 74% 2.3 mph SSE3.7 kmh SSE 4.6 mph7.4 kmh 30.45 in1031.2 mb - 0.00 in0.0 mm 0.00 in0.0 mm
11:50 PM 14.5°F-9.7°C 7.7°F-13.5°C 74% 1.2 mph S1.9 kmh S 6.9 mph11.1 kmh 30.44 in1030.8 mb - 0.00 in0.0 mm 0.00 in0.0 mm